x

Long Key, Fl (lonf1) Weather Station

11:00am - Sat 28th Mar 2015 All times are CDT. -4 hours from GMT.

  • Wind
    24mph, 26mph gusts
  • Sea Temp 77°f
  • Air Temp 65°f
  • Sea Pressure 1022.4mb
  • Long Key, Fl
  • Long Key, Fl

More Historic Weather Station data

Upgrade to MSW Pro to gain access to the past 30 days of data for over 8000 Wavebouys and Weather Stations around the globe.

Join Pro

Comparision Forecast

View Surf forecast
   
Sat 03/28 11:00am 24 26 mph 1022.4mb 77f 65f
10:00am 24 30 mph 1021.4mb 77f 66f
9:00am 22 26 mph 1020.4mb 78f 66f
8:00am 24 26 mph 1019.4mb 78f 67f
7:00am 25 28 mph 1018.3mb 79f 68f
6:00am 24 28 mph 1017.4mb 80f 70f
5:00am 20 22 mph 1016.9mb 80f 72f
4:00am 24 28 mph 1016.5mb 80f 74f
3:00am 23 28 mph 1016.1mb 81f 76f
2:00am 23 26 mph 1016.5mb 81f 76f
1:00am 17 18 mph 1016mb 81f 76f
12:00am 18 21 mph 1016.6mb 82f 76f
Fri 03/27 11:00pm 11 14 mph 1016.1mb 82f 74f
10:00pm 24 28 mph 1016.9mb 82f 74f
9:00pm 30 33 mph 1015.4mb 82f 74f
8:00pm 34 40 mph 1013.9mb 83f 72f
7:00pm 17 20 mph 1012.6mb 83f 82f
6:00pm 10 11 mph 1012.8mb 83f 81f
5:00pm 15
mph
1012.6mb 83f 81f
4:00pm 15 16 mph 1012.9mb 83f 80f
3:00pm 16 18 mph 1013.7mb 83f 80f
2:00pm 14 16 mph 1014.4mb 83f 81f
1:00pm 15 17 mph 1015.2mb 82f 80f
12:00pm 11 13 mph 1015.6mb 82f 80f
11:00am 13 15 mph 1015.7mb 82f 80f
10:00am 15 16 mph 1015.6mb 81f 80f
9:00am 10 13 mph 1015.6mb 81f 80f
8:00am 14 15 mph 1015.1mb 81f 79f
7:00am 14 16 mph 1014.4mb 82f 79f
6:00am 14 16 mph 1013.9mb 82f 80f
5:00am 15 17 mph 1014mb 82f 80f
4:00am 17 20 mph 1014.4mb 82f 80f
3:00am 16 17 mph 1014.9mb 82f 80f
2:00am 18 20 mph 1015.2mb 82f 80f
1:00am 16 18 mph 1015.5mb 82f 80f
12:00am 18 20 mph 1016mb 83f 80f
Thu 03/26 11:00pm 16 18 mph 1015.9mb 83f 80f
10:00pm 14 15 mph 1015mb 83f 80f
9:00pm 13 15 mph 1014.7mb 83f 80f
8:00pm 13 15 mph 1014.5mb 83f 80f
7:00pm 14 15 mph 1014.5mb 83f 80f
6:00pm 15 17 mph 1014.5mb 84f 81f
5:00pm 14 17 mph 1015mb 84f 81f
4:00pm 17 18 mph 1015.1mb 83f 81f
3:00pm 20 21 mph 1015.8mb 83f 81f
2:00pm 18 21 mph 1016.7mb 83f 80f
1:00pm 17 22 mph 1017.9mb 82f 80f
12:00pm 14 16 mph 1018.8mb 82f 80f
11:00am 13 15 mph 1019mb 82f 80f
10:00am 13 15 mph 1018.9mb 81f 80f
9:00am 10 13 mph 1018.6mb 81f 80f
8:00am 9 11 mph 1018mb 81f 79f
7:00am 9 11 mph 1017.4mb 82f 79f
6:00am 10 11 mph 1016.9mb 82f 78f
5:00am 13 14 mph 1016.8mb 82f 78f
4:00am 11 14 mph 1017.1mb 82f 78f
3:00am 13 14 mph 1018.1mb 82f 79f
2:00am 10 11 mph 1018.8mb 82f 79f
1:00am 10 11 mph 1019.3mb 82f 79f
12:00am 9 11 mph 1019.7mb 83f 80f
Wed 03/25 11:00pm 9 10 mph 1019.7mb 83f 80f
10:00pm 9 10 mph 1019.4mb 83f 80f
9:00pm 6 7 mph 1018.9mb 83f 80f
8:00pm 6 7 mph 1018.6mb 83f 80f
7:00pm 5
mph
1018.5mb 83f 81f
6:00pm  -  1 mph 1018.4mb 83f 86f
5:00pm  -  2 mph 1018.6mb 83f 82f
4:00pm 1 2 mph 1018.8mb 83f 80f
3:00pm  -  mph 1019.6mb 83f 81f
2:00pm  -  1 mph 1020.1mb 82f 78f
1:00pm  -  1 mph 1020.8mb 81f 77f
12:00pm  -  1 mph 1020.9mb 81f 76f
11:00am  -  1 mph 1020.9mb 81f 76f
10:00am 3 6 mph 1020.6mb 81f 75f
9:00am 3 5 mph 1019.9mb 81f 74f
8:00am 7 8 mph 1019.2mb 81f 74f
7:00am 8 9 mph 1018.7mb 81f 75f
6:00am 7 8 mph 1018.2mb 81f 76f
5:00am 7 8 mph 1018mb 81f 76f
4:00am 9 11 mph 1018.2mb 81f 76f
3:00am 7 8 mph 1018.5mb 82f 77f
2:00am 7 8 mph 1018.8mb 82f 78f
1:00am 13 15 mph 1018.8mb 82f 80f
12:00am 10 11 mph 1018.8mb 82f 80f
Tue 03/24 11:00pm 13 14 mph 1018.9mb 82f 80f
10:00pm 11 14 mph 1018.6mb 83f 79f
9:00pm 10 13 mph 1018mb 83f 79f
8:00pm 10 13 mph 1017.6mb 83f 78f
7:00pm 10 11 mph 1017.2mb 83f 79f
6:00pm 7
mph
1017mb 83f 79f